createdAt,value
2022-11-30T00:00:47.542Z,102031.97
2022-11-30T00:03:15.082Z,102035.44
2022-11-30T00:05:42.628Z,102030.19
2022-11-30T00:08:10.085Z,102032.88
2022-11-30T00:10:38.688Z,102040.69
2022-11-30T00:13:06.129Z,102036.34
2022-11-30T00:15:35.016Z,102029.34
2022-11-30T00:18:02.549Z,102033.72
2022-11-30T00:20:30.728Z,102032.88
2022-11-30T00:22:58.321Z,102033.72
2022-11-30T00:25:25.951Z,102032.00
2022-11-30T00:27:53.628Z,102031.16
2022-11-30T00:30:21.196Z,102032.00
2022-11-30T00:32:50.078Z,102031.16
2022-11-30T00:35:18.833Z,102025.91
2022-11-30T00:37:46.325Z,102025.06
2022-11-30T00:40:14.367Z,102028.59
2022-11-30T00:42:41.885Z,102027.75
2022-11-30T00:45:09.807Z,102030.38
2022-11-30T00:47:37.336Z,102032.16
2022-11-30T00:50:07.209Z,102031.31
2022-11-30T00:52:34.719Z,102033.06
2022-11-30T00:55:04.196Z,102031.31
2022-11-30T00:57:32.322Z,102029.53
2022-11-30T00:59:59.794Z,102029.53
2022-11-30T01:02:27.338Z,102024.28
2022-11-30T01:04:54.880Z,102031.31
2022-11-30T01:07:23.837Z,102034.00
2022-11-30T01:09:51.373Z,102026.13
2022-11-30T01:12:18.820Z,102032.22
2022-11-30T01:14:46.479Z,102036.63
2022-11-30T01:17:14.075Z,102048.91
2022-11-30T01:19:41.612Z,102051.56
2022-11-30T01:22:09.060Z,102048.06
2022-11-30T01:24:37.953Z,102055.94
2022-11-30T01:27:05.454Z,102051.56
2022-11-30T01:29:32.895Z,102050.72
2022-11-30T01:32:00.378Z,102049.88
2022-11-30T01:34:27.943Z,102048.94
2022-11-30T01:36:55.542Z,102055.97
2022-11-30T01:39:23.215Z,102052.50
2022-11-30T01:41:52.095Z,102049.88
2022-11-30T01:44:38.402Z,102046.31
2022-11-30T01:47:06.614Z,102040.22
2022-11-30T01:49:34.418Z,102037.66
2022-11-30T01:52:04.158Z,102037.66
2022-11-30T01:54:33.531Z,102029.78
2022-11-30T01:57:03.565Z,102036.81
2022-11-30T01:59:31.074Z,102026.38
2022-11-30T02:01:58.692Z,102034.31
2022-11-30T02:04:27.567Z,102041.34
2022-11-30T02:06:55.005Z,102043.16
2022-11-30T02:09:22.480Z,102047.63
2022-11-30T02:11:50.017Z,102045.06
2022-11-30T02:14:22.261Z,102043.44
2022-11-30T02:16:51.541Z,102042.63
2022-11-30T02:19:43.601Z,102045.41
2022-11-30T02:22:12.365Z,102039.47
2022-11-30T02:24:46.576Z,102044.00
2022-11-30T02:27:16.346Z,102055.53
2022-11-30T02:29:45.309Z,102054.81
2022-11-30T02:32:13.527Z,102060.16
2022-11-30T02:34:40.972Z,102066.41
2022-11-30T02:37:08.583Z,102063.91
2022-11-30T02:39:36.069Z,102063.16
2022-11-30T02:42:03.555Z,102065.94
2022-11-30T02:44:31.411Z,102068.63
2022-11-30T02:47:03.301Z,102074.03
2022-11-30T02:49:32.264Z,102074.94
2022-11-30T02:51:59.803Z,102073.25
2022-11-30T02:54:27.344Z,102080.28
2022-11-30T02:56:54.868Z,102084.69
2022-11-30T02:59:22.326Z,102076.88
2022-11-30T03:01:50.114Z,102086.53
2022-11-30T03:04:19.020Z,102080.50
2022-11-30T03:06:46.435Z,102074.41
2022-11-30T03:09:14.293Z,102088.38
2022-11-30T03:11:41.791Z,102087.50
2022-11-30T03:14:09.275Z,102089.28
2022-11-30T03:16:37.667Z,102087.50
2022-11-30T03:19:05.448Z,102080.56
2022-11-30T03:21:34.296Z,102087.50
2022-11-30T03:24:01.812Z,102089.31
2022-11-30T03:26:29.376Z,102085.81
2022-11-30T03:28:56.830Z,102091.06
2022-11-30T03:31:24.360Z,102091.84
2022-11-30T03:33:51.935Z,102096.22
2022-11-30T03:36:19.426Z,102101.41
2022-11-30T03:38:48.664Z,102099.63
2022-11-30T03:41:16.574Z,102094.31
2022-11-30T03:43:44.091Z,102092.56
2022-11-30T03:46:11.650Z,102096.94
2022-11-30T03:48:41.006Z,102097.78
2022-11-30T03:51:08.851Z,102094.22
2022-11-30T03:53:36.340Z,102095.06
2022-11-30T03:56:05.841Z,102095.94
2022-11-30T03:58:33.325Z,102103.78
2022-11-30T04:01:01.615Z,102100.25
2022-11-30T04:03:29.325Z,102095.00
2022-11-30T04:05:56.825Z,102091.47
2022-11-30T04:08:24.365Z,102081.84
2022-11-30T04:10:52.106Z,102080.97
2022-11-30T04:13:21.066Z,102083.59
2022-11-30T04:15:48.648Z,102091.41
2022-11-30T04:18:16.228Z,102092.25
2022-11-30T04:20:43.763Z,102099.19
2022-11-30T04:23:11.617Z,102093.97
2022-11-30T04:25:39.325Z,102096.59
2022-11-30T04:28:06.802Z,102099.19
2022-11-30T04:30:35.914Z,102100.94
2022-11-30T04:33:03.607Z,102100.09
2022-11-30T04:35:31.103Z,102100.94
2022-11-30T04:37:58.589Z,102098.31
2022-11-30T04:40:26.084Z,102098.31
2022-11-30T04:42:53.527Z,102096.59
2022-11-30T04:45:21.099Z,102101.81
2022-11-30T04:47:49.983Z,102096.59
2022-11-30T04:50:17.503Z,102093.09
2022-11-30T04:52:45.004Z,102087.00
2022-11-30T04:55:12.487Z,102086.16
2022-11-30T04:57:39.896Z,102087.06
2022-11-30T05:00:08.121Z,102086.28
2022-11-30T05:02:35.601Z,102084.59
2022-11-30T05:05:04.552Z,102084.66
2022-11-30T05:07:32.082Z,102086.41
2022-11-30T05:09:59.634Z,102084.66
2022-11-30T05:12:27.085Z,102080.28
2022-11-30T05:14:54.572Z,102081.22
2022-11-30T05:17:22.048Z,102075.97
2022-11-30T05:19:49.545Z,102076.88
2022-11-30T05:22:18.687Z,102080.28
2022-11-30T05:24:46.370Z,102081.22
2022-11-30T05:27:19.381Z,102084.69
2022-11-30T05:29:49.788Z,102081.22
2022-11-30T05:32:17.242Z,102093.47
2022-11-30T05:34:51.028Z,102096.09
2022-11-30T05:37:20.833Z,102097.81
2022-11-30T05:39:48.319Z,102094.31
2022-11-30T05:42:15.834Z,102090.78
2022-11-30T05:44:43.534Z,102094.31
2022-11-30T05:47:11.057Z,102090.84
2022-11-30T05:49:38.612Z,102096.94
2022-11-30T05:52:06.246Z,102105.72
2022-11-30T05:54:35.727Z,102110.97
2022-11-30T05:57:03.260Z,102114.53
2022-11-30T05:59:30.740Z,102128.47
2022-11-30T06:01:58.416Z,102128.47
2022-11-30T06:04:26.052Z,102134.56
2022-11-30T06:06:55.752Z,102134.56
2022-11-30T06:09:23.515Z,102131.09
2022-11-30T06:11:52.472Z,102139.81
2022-11-30T06:14:20.072Z,102143.34
2022-11-30T06:16:47.566Z,102136.41
2022-11-30T06:19:15.106Z,102139.94
2022-11-30T06:21:42.566Z,102139.09
2022-11-30T06:24:10.690Z,102139.94
2022-11-30T06:26:38.148Z,102141.72
2022-11-30T06:29:07.218Z,102145.19
2022-11-30T06:31:34.789Z,102150.38
2022-11-30T06:34:02.345Z,102154.75
2022-11-30T06:36:35.468Z,102156.47
2022-11-30T06:39:03.886Z,102148.66
2022-11-30T06:41:31.420Z,102159.09
2022-11-30T06:43:58.924Z,102158.25
2022-11-30T06:46:27.946Z,102155.63
2022-11-30T06:48:55.702Z,102158.19
2022-11-30T06:51:23.199Z,102157.25
2022-11-30T06:53:50.669Z,102161.59
2022-11-30T06:56:18.186Z,102168.56
2022-11-30T06:58:45.856Z,102165.94
2022-11-30T07:01:14.425Z,102165.94
2022-11-30T07:03:43.492Z,102170.28
2022-11-30T07:06:11.718Z,102171.06
2022-11-30T07:08:39.619Z,102164.09
2022-11-30T07:11:07.180Z,102168.50
2022-11-30T07:13:34.745Z,102176.31
2022-11-30T07:16:03.909Z,102182.47
2022-11-30T07:18:32.691Z,102189.47
2022-11-30T07:21:01.698Z,102185.09
2022-11-30T07:23:50.797Z,102193.88
2022-11-30T07:26:22.185Z,102193.97
2022-11-30T07:28:51.424Z,102192.25
2022-11-30T07:31:20.134Z,102198.38
2022-11-30T07:33:48.272Z,102200.13
2022-11-30T07:36:17.607Z,102204.53
2022-11-30T07:38:45.676Z,102205.44
2022-11-30T07:41:13.184Z,102204.59
2022-11-30T07:43:41.012Z,102208.13
2022-11-30T07:46:08.740Z,102215.06
2022-11-30T07:48:36.251Z,102207.28
2022-11-30T07:51:04.268Z,102215.06
2022-11-30T07:53:33.103Z,102207.22
2022-11-30T07:56:04.655Z,102213.25
2022-11-30T07:58:32.225Z,102218.50
2022-11-30T08:01:03.455Z,102220.19
2022-11-30T08:03:36.464Z,102220.19
2022-11-30T08:06:05.208Z,102230.69
2022-11-30T08:08:34.563Z,102226.28
2022-11-30T08:11:02.255Z,102225.44
2022-11-30T08:13:29.876Z,102228.06
2022-11-30T08:15:57.413Z,102226.28
2022-11-30T08:18:24.862Z,102228.88
2022-11-30T08:20:57.349Z,102226.28
2022-11-30T08:23:24.894Z,102233.25
2022-11-30T08:25:53.799Z,102235.84
2022-11-30T08:28:21.317Z,102230.59
2022-11-30T08:30:49.009Z,102234.91
2022-11-30T08:33:16.598Z,102238.38
2022-11-30T08:35:44.148Z,102242.66
2022-11-30T08:38:11.641Z,102242.66
2022-11-30T08:40:39.141Z,102242.66
2022-11-30T08:43:08.230Z,102239.13
2022-11-30T08:45:35.730Z,102240.81
2022-11-30T08:48:03.205Z,102242.56
2022-11-30T08:50:30.641Z,102250.44
2022-11-30T08:53:01.812Z,102246.81
2022-11-30T08:55:33.691Z,102241.59
2022-11-30T08:58:01.209Z,102243.34
2022-11-30T09:00:30.062Z,102249.38
2022-11-30T09:02:57.771Z,102244.16
2022-11-30T09:05:25.321Z,102249.28
2022-11-30T09:07:52.856Z,102255.41
2022-11-30T09:10:20.408Z,102252.81
2022-11-30T09:12:47.852Z,102262.44
2022-11-30T09:15:15.288Z,102265.03
2022-11-30T09:17:44.732Z,102258.00
2022-11-30T09:20:12.734Z,102266.75
2022-11-30T09:22:40.216Z,102257.09
2022-11-30T09:25:08.220Z,102268.44
2022-11-30T09:27:35.865Z,102271.00
2022-11-30T09:30:03.319Z,102271.84
2022-11-30T09:32:30.754Z,102267.41
2022-11-30T09:34:59.622Z,102269.16
2022-11-30T09:37:27.127Z,102264.78
2022-11-30T09:39:54.648Z,102259.53
2022-11-30T09:42:27.088Z,102269.06
2022-11-30T09:44:56.584Z,102269.94
2022-11-30T09:47:37.797Z,102266.44
2022-11-30T09:50:11.075Z,102264.69
2022-11-30T09:52:39.544Z,102270.78
2022-11-30T09:55:08.706Z,102269.94
2022-11-30T09:57:42.558Z,102268.22
2022-11-30T10:00:12.446Z,102269.06
2022-11-30T10:02:40.110Z,102275.19
2022-11-30T10:05:14.446Z,102269.06
2022-11-30T10:07:45.740Z,102271.69
2022-11-30T10:10:31.836Z,102273.47
2022-11-30T10:13:02.343Z,102273.47
2022-11-30T10:15:32.524Z,102276.13
2022-11-30T10:18:02.680Z,102272.66
2022-11-30T10:20:41.651Z,102264.78
2022-11-30T10:23:11.864Z,102273.56
2022-11-30T10:25:42.011Z,102265.63
2022-11-30T10:28:44.898Z,102263.88
2022-11-30T10:31:00.579Z,102265.63
2022-11-30T10:33:31.451Z,102260.38
2022-11-30T10:36:05.707Z,102255.19
2022-11-30T10:38:34.729Z,102257.81
2022-11-30T10:41:03.544Z,102263.06
2022-11-30T10:43:32.871Z,102261.38
2022-11-30T10:46:00.413Z,102260.50
2022-11-30T10:48:30.294Z,102261.38
2022-11-30T10:50:57.820Z,102258.75
2022-11-30T10:53:26.690Z,102264.91
2022-11-30T10:55:59.440Z,102271.06
2022-11-30T10:58:29.016Z,102270.28
2022-11-30T11:01:00.266Z,102265.13
2022-11-30T11:03:27.722Z,102262.63
2022-11-30T11:06:05.869Z,102263.47
2022-11-30T11:08:35.259Z,102267.03
2022-11-30T11:11:02.747Z,102267.06
2022-11-30T11:13:37.775Z,102266.16
2022-11-30T11:16:06.266Z,102265.25
2022-11-30T11:18:34.083Z,102265.25
2022-11-30T11:21:06.190Z,102274.03
2022-11-30T11:23:36.586Z,102271.44
2022-11-30T11:26:04.119Z,102260.22
2022-11-30T11:28:31.695Z,102268.16
2022-11-30T11:30:59.937Z,102267.31
2022-11-30T11:33:28.695Z,102266.47
2022-11-30T11:35:56.684Z,102264.78
2022-11-30T11:38:25.811Z,102267.41
2022-11-30T11:40:55.309Z,102270.94
2022-11-30T11:43:22.754Z,102263.06
2022-11-30T11:45:53.923Z,102270.06
2022-11-30T11:48:42.179Z,102257.88
2022-11-30T11:51:10.402Z,102262.28
2022-11-30T11:53:46.310Z,102266.59
2022-11-30T11:56:21.877Z,102272.63
2022-11-30T11:58:50.667Z,102274.41
2022-11-30T12:04:14.195Z,102273.50
2022-11-30T12:06:41.647Z,102263.00
2022-11-30T12:09:13.682Z,102269.09
2022-11-30T12:11:43.792Z,102271.72
2022-11-30T12:14:12.471Z,102282.19
2022-11-30T12:16:43.138Z,102280.44
2022-11-30T12:19:12.755Z,102271.72
2022-11-30T12:21:43.284Z,102276.97
2022-11-30T12:24:18.631Z,102275.19
2022-11-30T12:26:48.382Z,102269.00
2022-11-30T12:29:22.812Z,102269.00
2022-11-30T12:32:02.958Z,102267.19
2022-11-30T12:34:35.330Z,102276.75
2022-11-30T12:37:04.893Z,102275.09
2022-11-30T12:39:33.759Z,102283.88
2022-11-30T12:42:04.183Z,102271.69
2022-11-30T12:44:40.255Z,102281.31
2022-11-30T12:47:13.002Z,102282.28
2022-11-30T12:49:44.955Z,102286.66
2022-11-30T12:52:20.525Z,102283.19
2022-11-30T12:54:50.245Z,102282.34
2022-11-30T12:57:20.066Z,102288.38
2022-11-30T12:59:49.065Z,102287.44
2022-11-30T13:02:26.319Z,102288.28
2022-11-30T13:04:58.300Z,102290.84
2022-11-30T13:07:27.126Z,102295.16
2022-11-30T13:09:55.192Z,102294.25
2022-11-30T13:12:25.378Z,102290.78
2022-11-30T13:14:53.131Z,102298.66
2022-11-30T13:17:20.628Z,102304.81
2022-11-30T13:19:50.941Z,102301.38
2022-11-30T13:22:20.690Z,102304.03
2022-11-30T13:24:48.874Z,102304.97
2022-11-30T13:28:39.290Z,102309.34
2022-11-30T13:31:07.159Z,102297.94
2022-11-30T13:33:48.234Z,102303.19
2022-11-30T13:36:30.191Z,102300.56
2022-11-30T13:39:30.566Z,102298.84
2022-11-30T13:42:25.889Z,102304.97
2022-11-30T13:44:54.763Z,102303.25
2022-11-30T13:47:27.879Z,102298.13
2022-11-30T13:49:55.986Z,102303.38
2022-11-30T13:52:38.354Z,102302.59
2022-11-30T13:55:07.665Z,102293.88
2022-11-30T13:57:53.726Z,102302.59
2022-11-30T14:00:40.622Z,102299.19
2022-11-30T14:03:18.545Z,102316.63
2022-11-30T14:05:46.615Z,102314.94
2022-11-30T14:08:18.758Z,102306.16
2022-11-30T14:12:17.727Z,102310.47
2022-11-30T14:14:49.651Z,102309.56
2022-11-30T14:17:24.626Z,102313.09
2022-11-30T14:19:52.575Z,102318.34
2022-11-30T14:22:20.038Z,102317.44
2022-11-30T14:24:48.182Z,102322.66
2022-11-30T14:27:16.819Z,102317.53
2022-11-30T14:29:44.290Z,102322.91
2022-11-30T14:32:13.533Z,102323.00
2022-11-30T14:34:42.069Z,102327.31
2022-11-30T14:37:13.475Z,102322.09
2022-11-30T14:39:43.471Z,102331.69
2022-11-30T14:42:17.359Z,102325.53
2022-11-30T14:44:44.811Z,102332.47
2022-11-30T14:47:17.493Z,102331.63
2022-11-30T14:49:48.619Z,102332.47
2022-11-30T14:52:17.071Z,102332.47
2022-11-30T14:54:47.046Z,102338.63
2022-11-30T14:57:17.300Z,102342.97
2022-11-30T14:59:47.446Z,102345.59
2022-11-30T15:02:21.597Z,102348.28
2022-11-30T15:06:03.560Z,102350.84
2022-11-30T15:08:34.219Z,102347.38
2022-11-30T15:11:03.566Z,102355.28
2022-11-30T15:13:30.951Z,102348.31
2022-11-30T15:15:58.507Z,102351.84
2022-11-30T15:18:26.675Z,102343.19
2022-11-30T15:22:01.183Z,102338.06
2022-11-30T15:24:29.760Z,102336.34
2022-11-30T15:26:57.993Z,102338.97
2022-11-30T15:29:27.289Z,102343.28
2022-11-30T15:31:55.102Z,102331.94
2022-11-30T15:34:23.452Z,102334.50
2022-11-30T15:36:50.937Z,102338.00
2022-11-30T15:39:20.837Z,102341.47
2022-11-30T15:41:48.322Z,102340.63
2022-11-30T15:44:26.032Z,102346.72
2022-11-30T15:46:57.515Z,102345.84
2022-11-30T15:49:25.694Z,102352.00
2022-11-30T15:52:00.229Z,102352.88
2022-11-30T15:54:44.831Z,102358.09
2022-11-30T15:57:12.326Z,102359.03
2022-11-30T15:59:39.867Z,102359.03
2022-11-30T16:02:14.285Z,102354.69
2022-11-30T16:05:05.167Z,102362.56
2022-11-30T16:07:34.588Z,102368.66
2022-11-30T16:10:05.456Z,102367.78
2022-11-30T16:12:32.929Z,102365.13
2022-11-30T16:15:00.434Z,102372.97
2022-11-30T16:17:30.145Z,102373.03
2022-11-30T16:19:57.766Z,102366.91
2022-11-30T16:22:25.266Z,102366.91
2022-11-30T16:24:52.715Z,102369.53
2022-11-30T16:27:22.563Z,102372.16
2022-11-30T16:29:52.666Z,102373.03
2022-11-30T16:32:20.587Z,102379.13
2022-11-30T16:34:48.465Z,102381.75
2022-11-30T16:37:16.009Z,102381.78
2022-11-30T16:39:43.500Z,102387.09
2022-11-30T16:42:12.318Z,102381.91
2022-11-30T16:44:41.155Z,102388.06
2022-11-30T16:47:08.681Z,102395.00
2022-11-30T16:49:36.158Z,102395.88
2022-11-30T16:52:03.916Z,102394.09
2022-11-30T16:54:31.504Z,102401.97
2022-11-30T16:56:59.023Z,102405.50
2022-11-30T16:59:26.960Z,102403.78
2022-11-30T17:01:55.887Z,102405.53
2022-11-30T17:04:23.921Z,102406.41
2022-11-30T17:06:54.679Z,102406.47
2022-11-30T17:09:24.797Z,102407.38
2022-11-30T17:11:52.490Z,102409.94
2022-11-30T17:14:20.312Z,102410.78
2022-11-30T17:16:47.865Z,102409.09
2022-11-30T17:19:16.916Z,102413.47
2022-11-30T17:21:44.861Z,102408.22
2022-11-30T17:24:12.555Z,102416.09
2022-11-30T17:26:40.042Z,102416.09
2022-11-30T17:29:07.462Z,102418.78
2022-11-30T17:31:35.604Z,102419.75
2022-11-30T17:34:03.114Z,102423.34
2022-11-30T17:36:32.009Z,102419.84
2022-11-30T17:38:59.490Z,102420.72
2022-11-30T17:41:26.936Z,102419.84
2022-11-30T17:43:54.370Z,102418.91
2022-11-30T17:46:22.593Z,102424.16
2022-11-30T17:48:50.410Z,102425.84
2022-11-30T17:51:18.001Z,102432.81
2022-11-30T17:53:46.878Z,102431.09
2022-11-30T17:56:14.954Z,102438.06
2022-11-30T17:58:44.333Z,102441.59
2022-11-30T18:01:15.914Z,102447.69
2022-11-30T18:03:43.463Z,102440.72
2022-11-30T18:06:10.957Z,102445.97
2022-11-30T18:08:40.339Z,102443.41
2022-11-30T18:11:12.505Z,102447.88
2022-11-30T18:13:40.002Z,102447.91
2022-11-30T18:16:08.300Z,102450.59
2022-11-30T18:18:35.779Z,102449.75
2022-11-30T18:21:06.527Z,102450.66
2022-11-30T18:23:35.053Z,102452.41
2022-11-30T18:26:02.709Z,102453.28
2022-11-30T18:28:31.595Z,102451.63
2022-11-30T18:30:59.397Z,102459.56
2022-11-30T18:33:27.020Z,102459.59
2022-11-30T18:35:57.760Z,102460.53
2022-11-30T18:38:25.290Z,102456.16
2022-11-30T18:40:52.921Z,102464.91
2022-11-30T18:44:30.031Z,102459.69
2022-11-30T18:46:57.456Z,102461.41
2022-11-30T18:49:24.987Z,102462.25
2022-11-30T18:51:52.460Z,102459.69
2022-11-30T18:54:20.072Z,102464.06
2022-11-30T18:56:47.504Z,102464.13
2022-11-30T18:59:15.365Z,102465.03
2022-11-30T19:01:44.281Z,102475.50
2022-11-30T19:05:13.229Z,102474.59
2022-11-30T19:07:41.163Z,102476.38
2022-11-30T19:10:09.533Z,102473.75
2022-11-30T19:12:36.979Z,102476.41
2022-11-30T19:15:04.810Z,102477.31
2022-11-30T19:17:32.358Z,102485.13
2022-11-30T19:20:00.648Z,102480.75
2022-11-30T19:22:31.149Z,102488.63
2022-11-30T19:24:58.643Z,102485.13
2022-11-30T19:27:26.116Z,102485.09
2022-11-30T19:29:53.639Z,102489.41
2022-11-30T19:32:21.156Z,102488.50
2022-11-30T19:34:49.117Z,102489.38
2022-11-30T19:37:16.801Z,102485.88
2022-11-30T19:39:45.627Z,102492.84
2022-11-30T19:42:13.124Z,102491.13
2022-11-30T19:44:40.587Z,102495.50
2022-11-30T19:47:08.160Z,102489.41
2022-11-30T19:49:35.639Z,102488.50
2022-11-30T19:52:03.125Z,102498.19
2022-11-30T19:54:30.726Z,102498.22
2022-11-30T19:56:59.589Z,102496.47
2022-11-30T19:59:27.104Z,102497.38
2022-11-30T20:01:54.709Z,102499.16
2022-11-30T20:04:22.310Z,102502.69
2022-11-30T20:06:49.873Z,102512.25
2022-11-30T20:09:17.529Z,102504.34
2022-11-30T20:11:45.100Z,102497.31
2022-11-30T20:14:17.724Z,102506.03
2022-11-30T20:16:45.232Z,102499.91
2022-11-30T20:19:12.729Z,102496.41
2022-11-30T20:21:40.174Z,102506.00
2022-11-30T20:24:08.443Z,102500.75
2022-11-30T20:26:36.387Z,102500.81
2022-11-30T20:29:04.485Z,102498.28
2022-11-30T20:31:34.761Z,102501.78
2022-11-30T20:34:02.277Z,102508.84
2022-11-30T20:36:30.057Z,102507.97
2022-11-30T20:38:58.724Z,102507.97
2022-11-30T20:41:26.683Z,102514.06
2022-11-30T20:43:54.232Z,102517.59
2022-11-30T20:46:22.202Z,102517.59
2022-11-30T20:48:51.336Z,102523.66
2022-11-30T20:51:30.714Z,102528.88
2022-11-30T20:53:59.974Z,102529.72
2022-11-30T20:56:27.507Z,102530.59
2022-11-30T20:58:55.016Z,102532.28
2022-11-30T21:01:22.980Z,102527.91
2022-11-30T21:03:51.933Z,102530.59
2022-11-30T21:06:19.416Z,102526.19
2022-11-30T21:08:46.864Z,102527.13
2022-11-30T21:11:15.422Z,102528.88
2022-11-30T21:13:43.949Z,102531.50
2022-11-30T21:16:11.641Z,102521.94
2022-11-30T21:18:39.863Z,102524.56
2022-11-30T21:21:10.827Z,102523.69
2022-11-30T21:23:38.391Z,102525.47
2022-11-30T21:26:06.087Z,102524.56
2022-11-30T21:28:37.789Z,102521.03
2022-11-30T21:31:05.893Z,102517.50
2022-11-30T21:33:33.678Z,102519.25
2022-11-30T21:36:01.179Z,102518.41
2022-11-30T21:38:30.022Z,102523.63
2022-11-30T21:40:58.211Z,102518.41
2022-11-30T21:43:25.799Z,102520.09
2022-11-30T21:46:00.405Z,102512.25
2022-11-30T21:48:29.445Z,102522.75
2022-11-30T21:51:00.844Z,102521.03
2022-11-30T21:53:28.494Z,102517.50
2022-11-30T21:55:57.587Z,102517.50
2022-11-30T21:58:25.092Z,102524.50
2022-11-30T22:00:55.868Z,102520.97
2022-11-30T22:03:23.424Z,102523.59
2022-11-30T22:06:00.990Z,102528.81
2022-11-30T22:08:28.491Z,102525.28
2022-11-30T22:11:00.105Z,102525.28
2022-11-30T22:13:27.576Z,102527.06
2022-11-30T22:15:58.048Z,102532.28
2022-11-30T22:18:25.721Z,102527.09
2022-11-30T22:20:53.389Z,102527.97
2022-11-30T22:23:21.202Z,102532.41
2022-11-30T22:25:48.702Z,102529.78
2022-11-30T22:28:17.569Z,102537.66
2022-11-30T22:30:45.546Z,102542.00
2022-11-30T22:33:13.074Z,102541.13
2022-11-30T22:35:40.561Z,102539.38
2022-11-30T22:38:08.083Z,102542.91
2022-11-30T22:40:35.571Z,102533.28
2022-11-30T22:43:03.191Z,102543.81
2022-11-30T22:45:31.982Z,102546.38
2022-11-30T22:47:59.524Z,102544.59
2022-11-30T22:50:28.103Z,102544.59
2022-11-30T22:53:02.774Z,102547.22
2022-11-30T22:55:32.374Z,102548.94
2022-11-30T22:57:59.970Z,102553.31
2022-11-30T23:00:27.411Z,102550.69
2022-11-30T23:02:56.406Z,102550.69
2022-11-30T23:05:23.896Z,102550.69
2022-11-30T23:07:51.474Z,102547.22
2022-11-30T23:10:19.559Z,102551.53
2022-11-30T23:13:01.960Z,102557.63
2022-11-30T23:15:29.484Z,102557.63
2022-11-30T23:17:58.327Z,102548.91
2022-11-30T23:20:25.869Z,102551.53
2022-11-30T23:22:53.419Z,102548.94
2022-11-30T23:25:20.918Z,102551.56
2022-11-30T23:27:48.362Z,102552.47
2022-11-30T23:30:16.064Z,102550.75
2022-11-30T23:32:43.550Z,102550.75
2022-11-30T23:35:12.503Z,102555.94
2022-11-30T23:37:40.070Z,102552.44
2022-11-30T23:40:08.518Z,102548.94
2022-11-30T23:42:36.012Z,102546.38
2022-11-30T23:45:03.636Z,102549.84
2022-11-30T23:47:31.200Z,102547.22
2022-11-30T23:49:58.663Z,102559.41
2022-11-30T23:52:27.496Z,102556.81
2022-11-30T23:54:54.962Z,102551.56
2022-11-30T23:57:22.739Z,102558.56
2022-11-30T23:59:50.522Z,102553.31
